Time;durP1;ratioP1;P1;durP2;ratioP2;P2;SDS_P1;SDS_P2;PMS_P1;PMS_P2;Temp;Humidity;BMP_temperature;BMP_pressure;BME280_temperature;BME280_humidity;BME280_pressure;Samples;Min_cycle;Max_cycle;Signal;HPM_P1;HPM_P2
2021/03/14 00:02:01;;;;;;;1.83;0.85;;;17.40;65.40;;;;;;5074156;28;20060;-37
2021/03/14 00:04:26;;;;;;;0.90;0.75;;;17.40;65.70;;;;;;5089453;28;20096;-41
2021/03/14 00:06:52;;;;;;;1.02;0.80;;;17.40;65.60;;;;;;5088788;28;20031;-37
2021/03/14 00:09:18;;;;;;;1.55;1.08;;;17.40;65.50;;;;;;5085157;28;20028;-37
2021/03/14 00:11:43;;;;;;;0.80;0.75;;;17.40;65.60;;;;;;5084404;28;20423;-38
2021/03/14 00:14:09;;;;;;;1.00;0.80;;;17.40;65.40;;;;;;5085509;28;20028;-36
2021/03/14 00:16:34;;;;;;;0.95;0.77;;;17.40;65.60;;;;;;5088371;28;20020;-38
2021/03/14 00:19:00;;;;;;;1.10;1.00;;;17.30;65.40;;;;;;5077149;28;20023;-38
2021/03/14 00:21:25;;;;;;;2.20;0.88;;;17.30;65.60;;;;;;5073439;28;20108;-38
2021/03/14 00:23:51;;;;;;;0.85;0.60;;;17.30;65.20;;;;;;5079695;28;20027;-36
2021/03/14 00:26:17;;;;;;;1.35;1.02;;;17.30;65.70;;;;;;5084295;28;20452;-36
2021/03/14 00:28:42;;;;;;;2.13;1.00;;;17.30;65.30;;;;;;5090410;28;20395;-35
2021/03/14 00:31:08;;;;;;;0.80;0.80;;;17.30;65.50;;;;;;5088642;28;20051;-37
2021/03/14 00:33:33;;;;;;;1.45;0.93;;;17.30;65.30;;;;;;5077331;28;20028;-36
2021/03/14 00:35:59;;;;;;;1.08;0.70;;;17.30;65.30;;;;;;5076984;28;20037;-38
2021/03/14 00:38:24;;;;;;;1.92;0.90;;;17.30;65.40;;;;;;5073818;28;20078;-38
2021/03/14 00:40:50;;;;;;;1.25;0.70;;;17.30;65.50;;;;;;5074104;28;20470;-39
2021/03/14 00:43:15;;;;;;;1.52;0.70;;;17.30;65.50;;;;;;5088756;28;20024;-35
2021/03/14 00:45:41;;;;;;;0.98;0.75;;;17.30;65.60;;;;;;5085339;28;20028;-36
2021/03/14 00:48:07;;;;;;;0.60;0.60;;;17.30;65.50;;;;;;5079202;28;20056;-38
2021/03/14 00:50:37;;;;;;;1.05;0.60;;;17.30;65.40;;;;;;5076385;28;20044;-36
2021/03/14 00:53:03;;;;;;;1.33;0.88;;;17.30;65.30;;;;;;5087717;28;20012;-36
2021/03/14 00:55:28;;;;;;;2.03;0.70;;;17.30;65.50;;;;;;5073470;28;20067;-37
2021/03/14 00:57:54;;;;;;;1.23;0.70;;;17.20;65.40;;;;;;5076642;28;20039;-37
2021/03/14 01:00:20;;;;;;;0.82;0.50;;;17.20;65.50;;;;;;5076262;28;20687;-38
2021/03/14 01:02:46;;;;;;;0.80;0.70;;;17.30;65.50;;;;;;5078337;28;20127;-36
2021/03/14 01:05:11;;;;;;;0.90;0.80;;;17.20;65.50;;;;;;5085587;28;20100;-37
2021/03/14 01:07:37;;;;;;;1.20;0.95;;;17.20;65.40;;;;;;5088211;28;20029;-37
2021/03/14 01:10:03;;;;;;;0.88;0.77;;;17.20;66.10;;;;;;5080551;28;20081;-48
2021/03/14 01:12:29;;;;;;;1.17;0.70;;;17.20;65.50;;;;;;5084263;28;20028;-36
2021/03/14 01:14:55;;;;;;;1.60;0.70;;;17.20;65.50;;;;;;5084786;28;20080;-37
2021/03/14 01:17:20;;;;;;;0.70;0.70;;;17.20;65.30;;;;;;5084784;28;20031;-35
2021/03/14 01:19:46;;;;;;;0.80;0.80;;;17.20;65.40;;;;;;5087796;28;20571;-38
2021/03/14 01:22:11;;;;;;;0.68;0.68;;;17.20;65.10;;;;;;5086956;28;20024;-35
2021/03/14 01:24:37;;;;;;;0.65;0.52;;;17.20;65.50;;;;;;5076603;28;20035;-36
2021/03/14 01:27:03;;;;;;;0.70;0.65;;;17.20;65.40;;;;;;5076150;28;20165;-38
2021/03/14 01:29:28;;;;;;;0.60;0.52;;;17.20;65.30;;;;;;5076130;28;20024;-36
2021/03/14 01:31:54;;;;;;;1.15;0.70;;;17.20;65.20;;;;;;5073520;28;20497;-38
2021/03/14 01:34:19;;;;;;;0.60;0.60;;;17.20;65.30;;;;;;5089304;28;20641;-38
2021/03/14 01:36:45;;;;;;;1.02;0.70;;;17.20;66.00;;;;;;5085728;28;20031;-36
2021/03/14 01:39:11;;;;;;;1.00;0.82;;;17.20;64.80;;;;;;5084387;28;20047;-35
2021/03/14 01:41:36;;;;;;;1.20;0.80;;;17.20;64.90;;;;;;5084192;28;20027;-42
2021/03/14 01:44:02;;;;;;;1.00;0.90;;;17.20;64.80;;;;;;5086455;28;20028;-35
2021/03/14 01:46:27;;;;;;;1.17;0.65;;;17.20;64.70;;;;;;5071417;28;20474;-35
2021/03/14 01:48:54;;;;;;;0.57;0.50;;;17.20;64.60;;;;;;5085613;28;20555;-37
2021/03/14 01:51:19;;;;;;;1.15;0.80;;;17.20;64.80;;;;;;5077324;28;20036;-38
2021/03/14 01:53:45;;;;;;;1.38;0.65;;;17.20;64.50;;;;;;5074234;28;20036;-37
2021/03/14 01:56:11;;;;;;;2.05;0.60;;;17.20;64.60;;;;;;5075412;28;20509;-38
2021/03/14 01:58:36;;;;;;;1.20;0.90;;;17.20;64.30;;;;;;5069154;28;20035;-36
2021/03/14 02:01:02;;;;;;;0.60;0.60;;;17.20;64.10;;;;;;5074101;28;20107;-36
2021/03/14 02:03:27;;;;;;;1.02;0.73;;;17.20;64.10;;;;;;5075950;28;20456;-43
2021/03/14 02:05:53;;;;;;;1.17;0.77;;;17.20;64.20;;;;;;5075785;28;20029;-36
2021/03/14 02:08:19;;;;;;;0.57;0.57;;;17.20;64.60;;;;;;5073912;28;20059;-37
2021/03/14 02:10:46;;;;;;;0.70;0.60;;;17.20;64.60;;;;;;5086241;28;20092;-36
2021/03/14 02:13:40;;;;;;;0.75;0.50;;;17.20;64.60;;;;;;5072945;28;20027;-39
2021/03/14 02:16:19;;;;;;;0.73;0.52;;;17.20;64.50;;;;;;5072549;28;20482;-36
2021/03/14 02:18:47;;;;;;;0.80;0.73;;;17.20;64.50;;;;;;5085745;28;20462;-35
2021/03/14 02:21:13;;;;;;;0.70;0.70;;;17.20;64.30;;;;;;5091791;28;20016;-36
2021/03/14 02:23:44;;;;;;;1.13;0.65;;;17.20;64.60;;;;;;5071707;28;20028;-37
2021/03/14 02:26:17;;;;;;;0.98;0.45;;;17.20;64.30;;;;;;5072561;28;20426;-36
2021/03/14 02:28:43;;;;;;;1.40;0.70;;;17.20;64.30;;;;;;5072939;28;20035;-35
2021/03/14 02:31:09;;;;;;;0.80;0.80;;;17.20;64.80;;;;;;5086080;28;20107;-38
2021/03/14 02:33:36;;;;;;;0.70;0.60;;;17.20;64.40;;;;;;5071636;28;20021;-38
2021/03/14 02:36:02;;;;;;;0.73;0.70;;;17.20;64.40;;;;;;5078023;28;20032;-37
2021/03/14 02:38:27;;;;;;;0.70;0.70;;;17.20;64.60;;;;;;5082679;28;20039;-37
2021/03/14 02:40:56;;;;;;;1.20;0.75;;;17.20;64.90;;;;;;5086446;28;20028;-37
2021/03/14 02:43:23;;;;;;;0.90;0.75;;;17.20;64.50;;;;;;5086685;28;20027;-36
2021/03/14 02:45:49;;;;;;;0.88;0.50;;;17.20;64.90;;;;;;5083999;28;20033;-40
2021/03/14 02:48:15;;;;;;;0.70;0.60;;;17.20;65.00;;;;;;5074329;28;20020;-35
2021/03/14 02:50:41;;;;;;;0.63;0.50;;;17.20;64.80;;;;;;5076894;28;20505;-36
2021/03/14 02:53:07;;;;;;;1.20;0.60;;;17.20;65.00;;;;;;5090757;28;20017;-38
2021/03/14 02:55:33;;;;;;;0.85;0.60;;;17.20;64.90;;;;;;5056738;28;20032;-38
2021/03/14 02:57:58;;;;;;;0.98;0.65;;;17.20;65.00;;;;;;5077159;28;20064;-40
2021/03/14 03:00:25;;;;;;;0.65;0.52;;;17.20;65.00;;;;;;5078368;28;20111;-38
2021/03/14 03:02:52;;;;;;;0.60;0.52;;;17.10;65.00;;;;;;5078433;28;20390;-39
2021/03/14 03:05:18;;;;;;;0.95;0.73;;;17.20;65.40;;;;;;5076435;28;20044;-36
2021/03/14 03:07:48;;;;;;;0.70;0.70;;;17.10;65.90;;;;;;5090517;28;20070;-36
2021/03/14 03:10:15;;;;;;;0.50;0.50;;;17.10;65.30;;;;;;5076750;28;20036;-38
2021/03/14 03:12:41;;;;;;;0.80;0.70;;;17.10;65.10;;;;;;5085448;28;20054;-38
2021/03/14 03:15:07;;;;;;;0.57;0.52;;;17.10;65.70;;;;;;5078642;28;20379;-38
2021/03/14 03:17:33;;;;;;;0.98;0.85;;;17.10;65.70;;;;;;5073325;28;20035;-38
2021/03/14 03:19:58;;;;;;;0.60;0.40;;;17.10;65.30;;;;;;5091367;28;20028;-35
2021/03/14 03:22:24;;;;;;;0.68;0.63;;;17.10;65.30;;;;;;5058322;28;20024;-37
2021/03/14 03:24:52;;;;;;;0.77;0.50;;;17.10;65.00;;;;;;5072501;28;20020;-36
2021/03/14 03:27:18;;;;;;;0.65;0.50;;;17.10;65.50;;;;;;5078320;28;20533;-39
2021/03/14 03:29:43;;;;;;;0.60;0.60;;;17.10;65.60;;;;;;5079574;28;20030;-37
2021/03/14 03:32:09;;;;;;;0.57;0.55;;;17.10;65.30;;;;;;5086930;28;20041;-36
2021/03/14 03:34:34;;;;;;;0.52;0.50;;;17.10;66.00;;;;;;5089762;28;20016;-36
2021/03/14 03:37:00;;;;;;;0.52;0.52;;;17.10;65.30;;;;;;5089260;28;20493;-36
2021/03/14 03:39:25;;;;;;;0.60;0.45;;;17.10;65.60;;;;;;5086306;28;20048;-37
2021/03/14 03:42:03;;;;;;;0.95;0.63;;;17.10;65.60;;;;;;5080261;28;20028;-38
2021/03/14 03:44:29;;;;;;;0.85;0.55;;;17.10;65.70;;;;;;5093062;28;20036;-38
2021/03/14 03:47:00;;;;;;;0.63;0.55;;;17.10;65.70;;;;;;5088864;28;20042;-36
2021/03/14 03:49:31;;;;;;;0.40;0.40;;;17.00;65.30;;;;;;5074147;28;20020;-38
2021/03/14 03:51:57;;;;;;;0.80;0.80;;;17.00;65.30;;;;;;5078380;28;20116;-36
2021/03/14 03:54:24;;;;;;;0.63;0.40;;;17.00;65.00;;;;;;5075727;28;20028;-38
2021/03/14 03:56:50;;;;;;;0.60;0.45;;;17.00;65.10;;;;;;5094450;28;20449;-37
2021/03/14 03:59:16;;;;;;;0.88;0.50;;;17.00;65.50;;;;;;5089488;28;20409;-35
2021/03/14 04:01:42;;;;;;;0.85;0.52;;;17.00;65.70;;;;;;5071189;28;20032;-35
2021/03/14 04:04:07;;;;;;;0.63;0.50;;;17.00;65.80;;;;;;5071979;28;20024;-36
2021/03/14 04:06:33;;;;;;;0.55;0.40;;;17.00;65.50;;;;;;5090351;28;20070;-36
2021/03/14 04:08:59;;;;;;;0.57;0.50;;;17.00;65.80;;;;;;5078412;28;20488;-40
2021/03/14 04:11:25;;;;;;;0.50;0.45;;;17.00;65.60;;;;;;5084826;28;20113;-36
2021/03/14 04:13:51;;;;;;;1.02;0.50;;;17.00;65.40;;;;;;5088294;28;20055;-36
2021/03/14 04:16:16;;;;;;;0.40;0.30;;;17.00;65.60;;;;;;5104754;28;20067;-37
2021/03/14 04:18:42;;;;;;;0.80;0.80;;;17.00;65.50;;;;;;5073422;28;20498;-36
2021/03/14 04:21:10;;;;;;;0.80;0.50;;;17.00;65.50;;;;;;5077678;28;20032;-36
2021/03/14 04:23:36;;;;;;;0.65;0.50;;;17.00;65.60;;;;;;5085719;28;20028;-38
2021/03/14 04:26:02;;;;;;;0.50;0.45;;;17.00;65.50;;;;;;5074701;28;20133;-36
2021/03/14 04:28:30;;;;;;;0.70;0.40;;;17.00;65.30;;;;;;5073891;28;20508;-36
2021/03/14 04:30:55;;;;;;;0.95;0.50;;;17.00;65.60;;;;;;5075743;28;20097;-35
2021/03/14 04:33:22;;;;;;;0.68;0.40;;;17.00;65.60;;;;;;5081545;28;20561;-36
2021/03/14 04:35:48;;;;;;;0.55;0.47;;;17.00;65.70;;;;;;5077815;28;20031;-38
2021/03/14 04:38:13;;;;;;;0.50;0.45;;;17.00;65.50;;;;;;5072886;28;20482;-38
2021/03/14 04:40:39;;;;;;;0.50;0.50;;;17.00;65.40;;;;;;5072513;28;20032;-36
2021/03/14 04:43:05;;;;;;;0.55;0.50;;;16.90;65.60;;;;;;5088305;28;20020;-36
2021/03/14 04:45:31;;;;;;;0.40;0.40;;;17.00;65.50;;;;;;5073404;28;20094;-36
2021/03/14 04:47:56;;;;;;;0.40;0.40;;;16.90;65.40;;;;;;5071825;28;20029;-36
2021/03/14 04:50:23;;;;;;;0.45;0.38;;;16.90;65.50;;;;;;5073681;28;20089;-37
2021/03/14 04:52:50;;;;;;;0.57;0.40;;;16.90;65.50;;;;;;5087559;28;20021;-37
2021/03/14 04:55:16;;;;;;;0.35;0.30;;;16.90;65.50;;;;;;5090316;28;20051;-35
2021/03/14 04:57:42;;;;;;;0.65;0.50;;;16.90;65.40;;;;;;5088993;28;20501;-36
2021/03/14 05:00:09;;;;;;;0.60;0.60;;;16.90;65.50;;;;;;5085924;28;20140;-36
2021/03/14 05:02:37;;;;;;;0.55;0.45;;;16.90;65.70;;;;;;5086335;28;20043;-38
2021/03/14 05:05:03;;;;;;;0.50;0.50;;;16.90;65.50;;;;;;5088152;28;20024;-39
2021/03/14 05:07:28;;;;;;;0.47;0.40;;;16.90;65.40;;;;;;5084140;28;20030;-36
2021/03/14 05:09:54;;;;;;;0.57;0.47;;;16.90;65.70;;;;;;5087160;28;20107;-37
2021/03/14 05:12:20;;;;;;;0.80;0.70;;;16.90;65.40;;;;;;5083909;28;20023;-37
2021/03/14 05:14:45;;;;;;;0.50;0.40;;;16.90;65.90;;;;;;5086106;28;20029;-37
2021/03/14 05:17:11;;;;;;;0.55;0.50;;;16.90;65.80;;;;;;5087438;28;20058;-34
2021/03/14 05:19:37;;;;;;;0.73;0.40;;;16.90;65.70;;;;;;5087089;28;20031;-35
2021/03/14 05:22:02;;;;;;;0.80;0.80;;;16.90;65.80;;;;;;5084370;28;20082;-36
2021/03/14 05:24:28;;;;;;;0.55;0.47;;;16.90;65.90;;;;;;5085718;28;20505;-39
2021/03/14 05:26:54;;;;;;;0.98;0.50;;;16.90;65.70;;;;;;5084792;28;20032;-36
2021/03/14 05:29:20;;;;;;;0.50;0.40;;;16.90;66.10;;;;;;5069499;28;20016;-38
2021/03/14 05:31:46;;;;;;;0.70;0.50;;;16.80;65.60;;;;;;5094563;28;20123;-37
2021/03/14 05:34:15;;;;;;;0.65;0.45;;;16.90;65.80;;;;;;5086969;28;20456;-39
2021/03/14 05:36:41;;;;;;;0.60;0.60;;;16.90;65.70;;;;;;5086453;28;20528;-36
2021/03/14 05:39:07;;;;;;;1.00;0.73;;;16.80;65.50;;;;;;5087987;28;20584;-37
2021/03/14 05:41:33;;;;;;;0.60;0.38;;;16.80;65.70;;;;;;5086322;28;20028;-40
2021/03/14 05:44:00;;;;;;;0.70;0.40;;;16.90;65.70;;;;;;5085730;28;20047;-36
2021/03/14 05:46:26;;;;;;;0.55;0.50;;;16.80;65.60;;;;;;5088626;28;20031;-36
2021/03/14 05:48:51;;;;;;;0.47;0.40;;;16.80;65.40;;;;;;5090849;28;20073;-35
2021/03/14 05:51:22;;;;;;;0.60;0.43;;;16.80;65.40;;;;;;5084157;28;20044;-36
2021/03/14 05:53:48;;;;;;;0.65;0.52;;;16.80;65.90;;;;;;5084600;28;20102;-37
2021/03/14 05:56:14;;;;;;;1.00;0.60;;;16.80;65.90;;;;;;5083297;28;20029;-38
2021/03/14 05:58:39;;;;;;;0.77;0.60;;;16.80;65.60;;;;;;5088057;28;20032;-37
2021/03/14 06:01:09;;;;;;;0.38;0.35;;;16.90;66.10;;;;;;5086142;28;20042;-38
2021/03/14 06:03:36;;;;;;;0.50;0.50;;;16.80;65.70;;;;;;5072013;28;20025;-35
2021/03/14 06:06:02;;;;;;;0.40;0.40;;;16.80;65.80;;;;;;5079393;28;20119;-38
2021/03/14 06:08:27;;;;;;;0.50;0.30;;;16.80;66.00;;;;;;5083475;28;20032;-36
2021/03/14 06:10:53;;;;;;;0.77;0.30;;;16.80;66.00;;;;;;5087362;28;20067;-38
2021/03/14 06:13:18;;;;;;;0.47;0.40;;;16.80;66.00;;;;;;5071697;28;20024;-38
2021/03/14 06:15:44;;;;;;;0.47;0.30;;;16.80;66.00;;;;;;5076252;28;20051;-38
2021/03/14 06:18:10;;;;;;;0.30;0.30;;;16.80;66.00;;;;;;5078374;28;20525;-36
2021/03/14 06:20:37;;;;;;;0.57;0.40;;;16.80;65.90;;;;;;5082797;28;20047;-36
2021/03/14 06:23:14;;;;;;;0.65;0.50;;;16.80;65.70;;;;;;5087670;28;20031;-37
2021/03/14 06:25:40;;;;;;;0.65;0.50;;;16.80;65.50;;;;;;5075640;28;20047;-36
2021/03/14 06:28:06;;;;;;;0.50;0.47;;;16.80;65.90;;;;;;5090997;28;20027;-37
2021/03/14 06:30:32;;;;;;;0.68;0.50;;;16.80;65.60;;;;;;5079440;28;20036;-35
2021/03/14 06:33:12;;;;;;;0.93;0.55;;;16.80;65.80;;;;;;5086964;28;20059;-35
2021/03/14 06:35:37;;;;;;;0.68;0.30;;;16.80;65.70;;;;;;5089203;28;20036;-36
2021/03/14 06:38:27;;;;;;;0.55;0.20;;;16.80;65.90;;;;;;5092531;28;20028;-36
2021/03/14 06:41:02;;;;;;;0.60;0.40;;;16.80;65.50;;;;;;5092347;28;20063;-35
2021/03/14 06:43:46;;;;;;;0.90;0.52;;;16.80;65.80;;;;;;5087955;28;20078;-36
2021/03/14 06:46:44;;;;;;;0.40;0.35;;;16.80;65.90;;;;;;5091383;28;20081;-36
2021/03/14 06:49:17;;;;;;;0.50;0.40;;;16.80;65.60;;;;;;5022298;28;20612;-36
2021/03/14 06:51:43;;;;;;;0.45;0.40;;;16.80;65.90;;;;;;5028990;28;20045;-39
2021/03/14 06:54:15;;;;;;;0.60;0.40;;;16.80;65.70;;;;;;5019541;28;20837;-36
2021/03/14 06:56:41;;;;;;;0.40;0.40;;;16.80;65.50;;;;;;5022968;28;20124;-35
2021/03/14 06:59:19;;;;;;;0.30;0.30;;;16.80;65.60;;;;;;5024934;28;20090;-36
2021/03/14 07:02:01;;;;;;;0.82;0.73;;;16.80;65.70;;;;;;5028117;28;20073;-38
2021/03/14 07:04:33;;;;;;;0.63;0.55;;;16.80;65.70;;;;;;5030399;28;20037;-37
2021/03/14 07:06:59;;;;;;;0.93;0.40;;;16.80;65.90;;;;;;5031390;28;20052;-39
2021/03/14 07:09:25;;;;;;;1.15;0.40;;;16.80;65.50;;;;;;5030529;28;20135;-42
2021/03/14 07:11:50;;;;;;;0.55;0.50;;;16.80;65.60;;;;;;5025128;28;20392;-39
2021/03/14 07:14:17;;;;;;;0.95;0.40;;;16.80;65.60;;;;;;5011696;28;20033;-39
2021/03/14 07:16:52;;;;;;;0.70;0.40;;;16.80;65.60;;;;;;5030407;28;20547;-38
2021/03/14 07:19:28;;;;;;;0.40;0.40;;;16.80;65.60;;;;;;5027701;28;20112;-37
2021/03/14 07:22:08;;;;;;;0.75;0.50;;;16.80;65.80;;;;;;5016074;28;20192;-37
2021/03/14 07:24:41;;;;;;;0.50;0.40;;;16.80;65.50;;;;;;5044297;28;20036;-37
2021/03/14 07:27:29;;;;;;;0.50;0.32;;;16.80;65.70;;;;;;5079845;28;20041;-38
2021/03/14 07:29:55;;;;;;;0.57;0.50;;;16.70;65.50;;;;;;5075302;28;20032;-37
2021/03/14 07:32:21;;;;;;;0.75;0.20;;;16.80;65.60;;;;;;5081618;28;20058;-35
2021/03/14 07:34:47;;;;;;;0.57;0.38;;;16.80;65.50;;;;;;5084468;28;20024;-38
2021/03/14 07:37:12;;;;;;;1.23;0.52;;;16.80;65.60;;;;;;5084182;28;20032;-38
2021/03/14 07:39:38;;;;;;;1.27;0.98;;;16.80;65.30;;;;;;5084715;28;20052;-38
2021/03/14 07:42:04;;;;;;;0.52;0.30;;;16.80;64.80;;;;;;5084683;28;20051;-41
2021/03/14 07:44:30;;;;;;;1.88;0.50;;;16.80;65.20;;;;;;5082730;28;20694;-41
2021/03/14 07:46:56;;;;;;;1.98;0.40;;;16.90;65.20;;;;;;5072388;28;20027;-40
2021/03/14 07:49:26;;;;;;;0.60;0.50;;;16.90;64.20;;;;;;5090985;28;20490;-42
2021/03/14 07:52:06;;;;;;;1.05;0.60;;;16.90;64.50;;;;;;5085554;28;20063;-41
2021/03/14 07:54:44;;;;;;;0.65;0.50;;;16.80;64.90;;;;;;5084850;28;20020;-42
2021/03/14 07:57:10;;;;;;;0.45;0.35;;;16.80;64.10;;;;;;5072292;28;20042;-42
2021/03/14 07:59:36;;;;;;;0.63;0.40;;;16.90;64.20;;;;;;5072113;28;20493;-42
2021/03/14 08:02:16;;;;;;;0.73;0.40;;;16.90;64.30;;;;;;5086297;28;20081;-42
2021/03/14 08:04:45;;;;;;;1.70;0.50;;;17.00;65.00;;;;;;5075230;28;20114;-41
2021/03/14 08:07:11;;;;;;;3.05;0.50;;;16.90;66.70;;;;;;5083495;28;20027;-42
2021/03/14 08:09:47;;;;;;;2.05;0.70;;;17.00;66.90;;;;;;5088538;28;20036;-43
2021/03/14 08:12:17;;;;;;;0.88;0.50;;;17.00;67.50;;;;;;5086244;28;20377;-42
2021/03/14 08:14:44;;;;;;;1.08;0.50;;;17.00;67.80;;;;;;5085058;28;20529;-40
2021/03/14 08:17:16;;;;;;;1.00;0.70;;;17.10;67.60;;;;;;5089218;28;20462;-40
2021/03/14 08:19:42;;;;;;;1.40;0.63;;;17.10;70.90;;;;;;5085799;28;20078;-40
2021/03/14 08:22:08;;;;;;;0.88;0.52;;;17.00;67.00;;;;;;5087109;28;20394;-40
2021/03/14 08:24:33;;;;;;;1.02;0.50;;;17.10;68.60;;;;;;5083025;28;20461;-40
2021/03/14 08:27:07;;;;;;;3.20;0.45;;;17.10;69.10;;;;;;5081742;28;20028;-41
2021/03/14 08:29:50;;;;;;;0.70;0.53;;;17.10;66.80;;;;;;5084025;28;20555;-41
2021/03/14 08:32:24;;;;;;;0.80;0.60;;;17.10;67.00;;;;;;5084863;28;20120;-40
2021/03/14 08:34:50;;;;;;;1.63;0.85;;;17.00;67.00;;;;;;5082659;28;20074;-38
2021/03/14 08:37:27;;;;;;;1.17;0.70;;;17.10;67.10;;;;;;5086322;28;20035;-39
2021/03/14 08:40:04;;;;;;;1.08;0.70;;;17.10;67.30;;;;;;5084892;28;20401;-39
2021/03/14 08:42:49;;;;;;;1.50;0.90;;;17.10;66.90;;;;;;5075150;28;20482;-40
2021/03/14 08:45:26;;;;;;;2.15;0.90;;;17.10;67.00;;;;;;5079186;28;20041;-44
2021/03/14 08:47:51;;;;;;;2.33;0.77;;;17.10;66.90;;;;;;5077224;28;20056;-39
2021/03/14 08:50:17;;;;;;;1.85;0.90;;;17.10;67.30;;;;;;5076570;28;20108;-38
2021/03/14 08:52:42;;;;;;;0.88;0.57;;;17.10;67.00;;;;;;5087340;28;20039;-38
2021/03/14 08:55:08;;;;;;;1.95;0.65;;;17.10;66.80;;;;;;5088437;28;20020;-36
2021/03/14 08:57:34;;;;;;;2.30;0.80;;;17.10;66.50;;;;;;5074997;28;20108;-38
2021/03/14 09:00:01;;;;;;;0.77;0.60;;;17.10;66.40;;;;;;5083980;28;20398;-37
2021/03/14 09:02:29;;;;;;;1.52;0.90;;;17.20;66.20;;;;;;5080916;28;20056;-38
2021/03/14 09:04:55;;;;;;;1.48;0.60;;;17.20;66.00;;;;;;5087643;28;20024;-36
2021/03/14 09:07:21;;;;;;;1.48;0.80;;;17.20;66.10;;;;;;5075528;28;20028;-36
2021/03/14 09:09:46;;;;;;;1.98;0.60;;;17.20;65.60;;;;;;5090192;28;20031;-37
2021/03/14 09:12:17;;;;;;;0.82;0.68;;;17.30;65.30;;;;;;5083179;28;20032;-39
2021/03/14 09:14:44;;;;;;;0.82;0.60;;;17.40;65.10;;;;;;5082371;28;20103;-37
2021/03/14 09:17:16;;;;;;;2.22;0.95;;;17.50;65.10;;;;;;5078431;28;20020;-37
2021/03/14 09:19:51;;;;;;;0.90;0.77;;;17.50;64.90;;;;;;5081230;28;20024;-34
2021/03/14 09:22:18;;;;;;;0.65;0.50;;;17.60;65.80;;;;;;5088248;28;20394;-37
2021/03/14 09:24:44;;;;;;;0.95;0.70;;;17.60;65.60;;;;;;5087660;28;20549;-36
2021/03/14 09:27:13;;;;;;;1.13;0.60;;;17.70;65.50;;;;;;5087821;28;20077;-37
2021/03/14 09:29:41;;;;;;;0.88;0.70;;;17.70;65.60;;;;;;5084654;28;20502;-37
2021/03/14 09:32:19;;;;;;;0.70;0.52;;;17.70;65.50;;;;;;5084548;28;20086;-37
2021/03/14 09:34:44;;;;;;;0.45;0.38;;;17.70;65.70;;;;;;5084243;28;20108;-36
2021/03/14 09:37:10;;;;;;;1.40;0.82;;;17.80;65.40;;;;;;5091553;28;20074;-35
2021/03/14 09:39:36;;;;;;;0.70;0.40;;;17.90;65.70;;;;;;5084405;28;20040;-41
2021/03/14 09:42:02;;;;;;;0.60;0.50;;;18.00;64.80;;;;;;5078696;28;20039;-34
2021/03/14 09:44:27;;;;;;;0.80;0.57;;;18.00;65.20;;;;;;5086906;28;20024;-38
2021/03/14 09:46:56;;;;;;;1.65;0.68;;;18.10;64.80;;;;;;5085746;28;20031;-38
2021/03/14 09:49:21;;;;;;;1.98;0.60;;;18.10;64.50;;;;;;5087455;28;20024;-38
2021/03/14 09:51:54;;;;;;;1.05;0.50;;;18.20;64.90;;;;;;5077514;28;20046;-39
2021/03/14 09:54:20;;;;;;;2.00;0.43;;;18.20;65.00;;;;;;5081357;28;20038;-38
2021/03/14 09:56:55;;;;;;;1.27;0.60;;;18.20;64.60;;;;;;5081077;28;20016;-40
2021/03/14 09:59:30;;;;;;;1.73;0.32;;;18.30;65.60;;;;;;5084147;28;20501;-40
2021/03/14 10:01:57;;;;;;;0.75;0.50;;;18.30;64.80;;;;;;4786530;27;10000459;-38
2021/03/14 10:04:22;;;;;;;1.45;0.50;;;18.30;64.40;;;;;;5086060;28;20225;-42
2021/03/14 10:06:48;;;;;;;1.35;0.60;;;18.40;64.50;;;;;;5074853;28;20047;-41
2021/03/14 10:09:21;;;;;;;1.65;0.90;;;18.40;64.20;;;;;;5076232;28;20028;-40
2021/03/14 10:11:47;;;;;;;0.73;0.60;;;18.50;63.80;;;;;;5077531;28;20063;-39
2021/03/14 10:14:15;;;;;;;1.10;0.70;;;18.60;63.60;;;;;;5079929;28;20390;-41
2021/03/14 10:16:42;;;;;;;2.15;0.82;;;18.60;63.40;;;;;;5073744;28;20056;-40
2021/03/14 10:19:07;;;;;;;1.00;0.60;;;18.60;63.20;;;;;;5074861;28;20032;-40
2021/03/14 10:21:33;;;;;;;0.60;0.40;;;18.60;63.20;;;;;;5080684;28;20028;-40
2021/03/14 10:24:19;;;;;;;1.08;0.63;;;18.50;63.40;;;;;;5082126;28;20451;-40
2021/03/14 10:27:00;;;;;;;1.75;0.50;;;18.60;63.00;;;;;;5084802;28;20074;-40
2021/03/14 10:29:34;;;;;;;1.30;0.63;;;18.60;63.00;;;;;;5080783;28;20024;-40
2021/03/14 10:32:00;;;;;;;0.82;0.47;;;18.50;62.90;;;;;;5075558;28;20490;-38
2021/03/14 10:34:26;;;;;;;0.77;0.47;;;18.50;63.00;;;;;;5089600;28;20028;-42
2021/03/14 10:36:53;;;;;;;0.95;0.50;;;18.60;63.20;;;;;;5090560;28;20020;-37
2021/03/14 10:39:28;;;;;;;0.93;0.50;;;18.60;62.90;;;;;;5086581;28;20072;-39
2021/03/14 10:41:54;;;;;;;0.50;0.50;;;18.60;62.40;;;;;;5083980;28;20035;-40
2021/03/14 10:44:23;;;;;;;0.70;0.60;;;18.60;62.30;;;;;;5078976;28;20020;-39
2021/03/14 10:46:51;;;;;;;2.53;0.65;;;18.70;62.20;;;;;;5075519;28;20025;-39
2021/03/14 10:49:23;;;;;;;2.83;0.63;;;18.70;62.80;;;;;;5084526;28;20106;-38
2021/03/14 10:51:51;;;;;;;1.50;0.70;;;18.70;62.40;;;;;;5078467;28;20517;-38
2021/03/14 10:54:17;;;;;;;2.55;0.52;;;18.70;61.80;;;;;;5086199;28;20103;-40
2021/03/14 10:56:45;;;;;;;1.10;0.60;;;18.80;61.80;;;;;;5086400;28;20044;-38
2021/03/14 10:59:30;;;;;;;4.82;0.55;;;18.80;62.40;;;;;;5089382;28;20501;-40
2021/03/14 11:02:19;;;;;;;1.40;0.80;;;19.00;62.10;;;;;;5075364;28;20134;-37
2021/03/14 11:04:59;;;;;;;0.93;0.50;;;19.10;61.50;;;;;;5074907;28;20097;-38
2021/03/14 11:07:29;;;;;;;0.45;0.40;;;19.10;61.40;;;;;;5090243;28;20111;-38
2021/03/14 11:10:13;;;;;;;0.65;0.55;;;19.00;61.30;;;;;;5077323;28;20036;-39
2021/03/14 11:12:40;;;;;;;1.17;0.75;;;19.00;61.40;;;;;;5079166;28;20068;-40
2021/03/14 11:15:06;;;;;;;1.58;0.60;;;18.90;61.00;;;;;;5078316;28;20430;-38
2021/03/14 11:17:36;;;;;;;1.73;0.60;;;18.90;61.00;;;;;;5077221;28;20398;-39
2021/03/14 11:20:05;;;;;;;0.93;0.50;;;18.90;61.00;;;;;;5089550;28;20086;-39
2021/03/14 11:22:31;;;;;;;0.77;0.50;;;18.90;60.90;;;;;;5073352;28;20075;-38
2021/03/14 11:24:57;;;;;;;0.90;0.50;;;18.90;61.40;;;;;;5077951;28;20064;-38
2021/03/14 11:27:22;;;;;;;3.53;1.13;;;18.90;61.40;;;;;;5074793;28;20031;-38
2021/03/14 11:29:48;;;;;;;1.20;0.50;;;18.90;61.20;;;;;;5077977;28;20443;-40
2021/03/14 11:32:14;;;;;;;0.68;0.40;;;18.90;61.40;;;;;;5074308;28;20040;-37
2021/03/14 11:34:43;;;;;;;1.00;0.43;;;18.90;60.80;;;;;;5078258;28;20148;-43
2021/03/14 11:37:09;;;;;;;1.48;0.77;;;19.00;60.50;;;;;;5074004;28;20039;-40
2021/03/14 11:39:35;;;;;;;2.10;0.82;;;18.90;60.70;;;;;;5078946;28;20418;-39
2021/03/14 11:42:01;;;;;;;1.95;0.60;;;19.00;60.70;;;;;;5077595;28;20025;-38
2021/03/14 11:44:26;;;;;;;1.58;0.60;;;19.00;60.50;;;;;;5077544;28;20039;-38
2021/03/14 11:46:52;;;;;;;2.00;0.80;;;18.90;60.20;;;;;;4725745;28;10000232;-37
2021/03/14 11:49:17;;;;;;;0.93;0.50;;;18.90;60.70;;;;;;5071778;28;20111;-35
2021/03/14 11:51:43;;;;;;;0.73;0.50;;;18.90;60.70;;;;;;5084128;28;20418;-35
2021/03/14 11:54:12;;;;;;;1.08;0.50;;;18.80;60.50;;;;;;5076297;28;20448;-38
2021/03/14 11:56:37;;;;;;;3.88;0.43;;;18.90;60.50;;;;;;5073545;28;20024;-34
2021/03/14 11:59:03;;;;;;;1.17;0.60;;;18.90;60.50;;;;;;5085226;28;20027;-36
2021/03/14 12:01:29;;;;;;;1.35;0.80;;;18.90;60.30;;;;;;5070991;28;20036;-35
2021/03/14 12:03:54;;;;;;;1.27;0.50;;;18.90;60.30;;;;;;5074199;28;20686;-38
2021/03/14 12:06:20;;;;;;;1.10;0.63;;;19.00;60.10;;;;;;5073982;28;20092;-35
2021/03/14 12:08:46;;;;;;;0.38;0.32;;;19.00;60.50;;;;;;5076711;28;20473;-38
2021/03/14 12:11:12;;;;;;;0.88;0.65;;;18.90;59.90;;;;;;5070928;28;20676;-37
2021/03/14 12:13:38;;;;;;;0.88;0.60;;;19.00;60.40;;;;;;5085571;28;20442;-38
2021/03/14 12:16:04;;;;;;;2.78;0.60;;;19.00;59.90;;;;;;5085164;28;20039;-38
2021/03/14 12:18:30;;;;;;;1.13;0.60;;;19.00;59.80;;;;;;5074555;28;20041;-36
2021/03/14 12:20:56;;;;;;;0.60;0.40;;;19.10;59.90;;;;;;5072440;28;20169;-37
2021/03/14 12:23:22;;;;;;;1.83;0.50;;;19.20;59.80;;;;;;5076248;28;20761;-37
2021/03/14 12:25:47;;;;;;;1.10;0.70;;;19.20;59.70;;;;;;5084155;28;20024;-37
2021/03/14 12:28:13;;;;;;;0.90;0.60;;;19.20;59.90;;;;;;5071377;28;20047;-38
2021/03/14 12:30:39;;;;;;;0.75;0.43;;;19.20;59.60;;;;;;5074242;28;20529;-41
2021/03/14 12:33:04;;;;;;;0.75;0.50;;;19.10;59.50;;;;;;5073510;28;20087;-42
2021/03/14 12:35:30;;;;;;;1.20;0.40;;;19.10;59.70;;;;;;5071418;28;20032;-39
2021/03/14 12:37:55;;;;;;;1.65;0.43;;;19.00;59.60;;;;;;5083371;28;20016;-40
2021/03/14 12:40:21;;;;;;;0.90;0.70;;;19.00;59.60;;;;;;5084387;28;20605;-39
2021/03/14 12:42:46;;;;;;;0.65;0.57;;;18.90;59.60;;;;;;5073157;28;20035;-42
2021/03/14 12:45:12;;;;;;;1.67;0.60;;;19.00;60.00;;;;;;5079297;28;20028;-39
2021/03/14 12:47:38;;;;;;;0.70;0.40;;;19.00;60.40;;;;;;5083110;28;20033;-37
2021/03/14 12:50:07;;;;;;;1.92;0.50;;;19.10;60.30;;;;;;5074599;28;20024;-38